Time;durP1;ratioP1;P1;durP2;ratioP2;P2;SDS_P1;SDS_P2;PMS_P1;PMS_P2;Temp;Humidity;BMP_temperature;BMP_pressure;BME280_temperature;BME280_humidity;BME280_pressure;Samples;Min_cycle;Max_cycle;Signal;HPM_P1;HPM_P2
2023/08/07 00:02:17;;;;;;;5.63;1.50;;;;;;;;;;6121920;23;20029;-43
2023/08/07 00:04:44;;;;;;;4.13;1.30;;;;;;;;;;6128985;23;20021;-47
2023/08/07 00:07:12;;;;;;;8.85;1.58;;;;;;;;;;6119958;23;20041;-44
2023/08/07 00:09:43;;;;;;;5.53;1.40;;;;;;;;;;6124881;23;20104;-44
2023/08/07 00:12:11;;;;;;;4.03;1.27;;;;;;;;;;6129652;23;20025;-44
2023/08/07 00:14:38;;;;;;;6.83;1.27;;;;;;;;;;6128506;23;20048;-43
2023/08/07 00:17:06;;;;;;;5.90;0.90;;;;;;;;;;6120831;23;20092;-42
2023/08/07 00:19:35;;;;;;;5.18;1.33;;;;;;;;;;6120254;23;20013;-43
2023/08/07 00:22:03;;;;;;;5.63;1.45;;;;;;;;;;6128335;23;20021;-43
2023/08/07 00:24:31;;;;;;;6.00;1.27;;;;;;;;;;6119155;23;20024;-42
2023/08/07 00:26:59;;;;;;;7.90;1.27;;;;;;;;;;6130206;23;20445;-43
2023/08/07 00:29:26;;;;;;;4.45;1.20;;;;;;;;;;6119624;23;20017;-45
2023/08/07 00:31:54;;;;;;;6.63;1.33;;;;;;;;;;6129545;23;20454;-44
2023/08/07 00:34:22;;;;;;;6.90;1.23;;;;;;;;;;6121721;23;20030;-43
2023/08/07 00:36:51;;;;;;;5.78;1.20;;;;;;;;;;6129863;23;20017;-43
2023/08/07 00:39:19;;;;;;;6.13;1.30;;;;;;;;;;6122594;23;20021;-43
2023/08/07 00:41:49;;;;;;;5.82;1.50;;;;;;;;;;6126753;23;20018;-44
2023/08/07 00:44:17;;;;;;;5.93;1.33;;;;;;;;;;6130029;23;20326;-43
2023/08/07 00:46:45;;;;;;;5.78;1.30;;;;;;;;;;6120931;23;20014;-43
2023/08/07 00:49:13;;;;;;;5.95;1.90;;;;;;;;;;6127458;23;20601;-43
2023/08/07 00:51:41;;;;;;;5.57;1.50;;;;;;;;;;6120244;23;20021;-42
2023/08/07 00:54:10;;;;;;;5.50;1.00;;;;;;;;;;6153102;23;20048;-43
2023/08/07 00:56:38;;;;;;;5.70;2.08;;;;;;;;;;6120282;23;20068;-43
2023/08/07 00:59:06;;;;;;;7.45;1.83;;;;;;;;;;6124393;23;20017;-43
2023/08/07 01:01:33;;;;;;;7.68;1.67;;;;;;;;;;6127613;23;20088;-43
2023/08/07 01:04:01;;;;;;;7.17;1.10;;;;;;;;;;6121286;23;20025;-43
2023/08/07 01:06:29;;;;;;;4.80;1.40;;;;;;;;;;6121265;23;20091;-44
2023/08/07 01:08:57;;;;;;;6.60;1.70;;;;;;;;;;6150881;23;20017;-44
2023/08/07 01:11:31;;;;;;;4.72;1.48;;;;;;;;;;6115629;23;20436;-45
2023/08/07 01:14:01;;;;;;;5.95;1.50;;;;;;;;;;6131113;23;20021;-46
2023/08/07 01:16:32;;;;;;;5.17;1.20;;;;;;;;;;6141233;23;20348;-45
2023/08/07 01:19:01;;;;;;;7.30;1.95;;;;;;;;;;6128552;23;20037;-43
2023/08/07 01:21:28;;;;;;;5.13;1.70;;;;;;;;;;6118803;23;20285;-47
2023/08/07 01:23:57;;;;;;;4.88;1.48;;;;;;;;;;6130455;23;20018;-43
2023/08/07 01:26:25;;;;;;;7.93;1.80;;;;;;;;;;6116364;23;20017;-43
2023/08/07 01:28:56;;;;;;;4.47;1.50;;;;;;;;;;6085762;23;20502;-44
2023/08/07 01:31:25;;;;;;;6.97;1.60;;;;;;;;;;6123876;23;20017;-43
2023/08/07 01:33:57;;;;;;;6.13;1.70;;;;;;;;;;6130200;23;20468;-43
2023/08/07 01:36:25;;;;;;;5.40;1.73;;;;;;;;;;6119439;23;20017;-42
2023/08/07 01:39:00;;;;;;;7.47;1.50;;;;;;;;;;6130742;23;20025;-43
2023/08/07 01:41:29;;;;;;;5.97;2.07;;;;;;;;;;6129004;23;20024;-42
2023/08/07 01:43:56;;;;;;;8.10;1.42;;;;;;;;;;6120783;23;20027;-43
2023/08/07 01:46:24;;;;;;;5.50;1.35;;;;;;;;;;6131184;23;20021;-43
2023/08/07 01:48:52;;;;;;;7.60;1.80;;;;;;;;;;6126193;23;20608;-47
2023/08/07 01:51:20;;;;;;;8.05;1.73;;;;;;;;;;6133084;23;20435;-45
2023/08/07 01:53:48;;;;;;;7.27;1.90;;;;;;;;;;6124769;23;20018;-44
2023/08/07 01:56:17;;;;;;;5.28;1.58;;;;;;;;;;6133798;23;20017;-43
2023/08/07 01:58:45;;;;;;;7.07;1.90;;;;;;;;;;6119613;23;20464;-43
2023/08/07 02:01:12;;;;;;;7.47;1.85;;;;;;;;;;6158217;23;20018;-44
2023/08/07 02:03:40;;;;;;;6.90;1.83;;;;;;;;;;6127849;23;20409;-42
2023/08/07 02:06:08;;;;;;;5.77;1.70;;;;;;;;;;6125386;23;20013;-42
2023/08/07 02:08:35;;;;;;;8.23;2.22;;;;;;;;;;6130637;23;20451;-43
2023/08/07 02:11:03;;;;;;;7.50;2.08;;;;;;;;;;6125406;23;20456;-43
2023/08/07 02:13:32;;;;;;;6.15;1.60;;;;;;;;;;6132757;23;20021;-45
2023/08/07 02:15:59;;;;;;;5.93;2.00;;;;;;;;;;6124319;23;20117;-44
2023/08/07 02:18:27;;;;;;;5.77;2.17;;;;;;;;;;6107583;23;20429;-43
2023/08/07 02:20:55;;;;;;;4.90;1.52;;;;;;;;;;6132369;23;20475;-45
2023/08/07 02:23:22;;;;;;;10.55;1.70;;;;;;;;;;6133187;23;20022;-44
2023/08/07 02:25:52;;;;;;;7.32;1.65;;;;;;;;;;6133700;23;20104;-43
2023/08/07 02:28:19;;;;;;;6.18;1.67;;;;;;;;;;6125527;23;20673;-42
2023/08/07 02:30:51;;;;;;;5.77;1.70;;;;;;;;;;6136907;23;20473;-43
2023/08/07 02:33:18;;;;;;;6.65;1.88;;;;;;;;;;6123826;23;20025;-44
2023/08/07 02:35:46;;;;;;;8.93;1.85;;;;;;;;;;6133021;23;20068;-42
2023/08/07 02:38:31;;;;;;;6.95;1.70;;;;;;;;;;6127341;23;20088;-42
2023/08/07 02:41:01;;;;;;;5.80;1.50;;;;;;;;;;6134999;23;20041;-42
2023/08/07 02:43:28;;;;;;;10.27;2.47;;;;;;;;;;6126388;23;20022;-44
2023/08/07 02:45:57;;;;;;;8.45;1.40;;;;;;;;;;6131241;23;20080;-44
2023/08/07 02:48:25;;;;;;;5.07;1.75;;;;;;;;;;6123274;23;20084;-42
2023/08/07 02:50:53;;;;;;;9.30;1.65;;;;;;;;;;6134762;23;20064;-42
2023/08/07 02:53:21;;;;;;;7.63;1.77;;;;;;;;;;6097681;23;20021;-42
2023/08/07 02:55:48;;;;;;;6.07;1.53;;;;;;;;;;6128796;23;20025;-46
2023/08/07 02:58:17;;;;;;;6.20;1.50;;;;;;;;;;6153634;23;20020;-44
2023/08/07 03:00:45;;;;;;;7.55;2.17;;;;;;;;;;6133711;23;20014;-43
2023/08/07 03:03:14;;;;;;;5.90;1.75;;;;;;;;;;6118626;23;20432;-43
2023/08/07 03:05:48;;;;;;;6.93;1.50;;;;;;;;;;6107424;23;20452;-45
2023/08/07 03:08:15;;;;;;;6.90;1.80;;;;;;;;;;6131742;23;20015;-43
2023/08/07 03:10:43;;;;;;;7.90;2.00;;;;;;;;;;6127692;23;20228;-43
2023/08/07 03:13:11;;;;;;;6.70;2.25;;;;;;;;;;6130987;23;20029;-47
2023/08/07 03:15:38;;;;;;;6.55;2.00;;;;;;;;;;6132241;23;20110;-46
2023/08/07 03:18:06;;;;;;;5.95;1.92;;;;;;;;;;6127698;23;20017;-44
2023/08/07 03:20:37;;;;;;;8.13;2.17;;;;;;;;;;6129695;23;20024;-43
2023/08/07 03:23:04;;;;;;;7.72;1.40;;;;;;;;;;6131607;23;20455;-43
2023/08/07 03:25:32;;;;;;;7.28;1.95;;;;;;;;;;6139440;23;20021;-42
2023/08/07 03:27:59;;;;;;;7.50;1.95;;;;;;;;;;6126832;23;20390;-42
2023/08/07 03:30:27;;;;;;;7.35;1.80;;;;;;;;;;6134192;23;20064;-43
2023/08/07 03:32:55;;;;;;;7.17;1.83;;;;;;;;;;6127058;23;20021;-42
2023/08/07 03:35:23;;;;;;;6.18;1.98;;;;;;;;;;6136889;23;20068;-43
2023/08/07 03:37:52;;;;;;;6.40;2.08;;;;;;;;;;6124861;23;20017;-43
2023/08/07 03:40:20;;;;;;;6.85;1.75;;;;;;;;;;6122077;23;20424;-42
2023/08/07 03:42:48;;;;;;;7.85;2.25;;;;;;;;;;6135374;23;20017;-42
2023/08/07 03:45:15;;;;;;;8.43;1.97;;;;;;;;;;6126021;23;20024;-44
2023/08/07 03:47:43;;;;;;;8.48;2.25;;;;;;;;;;6155731;23;20373;-43
2023/08/07 03:50:11;;;;;;;8.50;1.92;;;;;;;;;;6129211;23;20539;-43
2023/08/07 03:52:38;;;;;;;6.95;2.38;;;;;;;;;;6131870;23;20017;-42
2023/08/07 03:55:07;;;;;;;5.78;1.95;;;;;;;;;;6124717;23;20017;-44
2023/08/07 03:57:35;;;;;;;6.97;2.00;;;;;;;;;;6136223;23;20392;-43
2023/08/07 04:00:07;;;;;;;6.78;2.03;;;;;;;;;;6133544;23;20025;-43
2023/08/07 04:02:34;;;;;;;7.65;2.00;;;;;;;;;;6124930;23;20021;-44
2023/08/07 04:05:02;;;;;;;7.00;2.63;;;;;;;;;;6134835;23;20032;-42
2023/08/07 04:07:30;;;;;;;6.55;2.28;;;;;;;;;;6125114;23;20078;-45
2023/08/07 04:09:58;;;;;;;8.13;2.30;;;;;;;;;;6134520;23;20455;-44
2023/08/07 04:12:27;;;;;;;7.47;2.20;;;;;;;;;;6129827;23;20024;-44
2023/08/07 04:14:55;;;;;;;8.68;2.47;;;;;;;;;;6131177;23;20022;-44
2023/08/07 04:17:22;;;;;;;7.10;2.50;;;;;;;;;;6127274;23;20052;-45
2023/08/07 04:19:50;;;;;;;8.15;2.33;;;;;;;;;;6132077;23;20017;-42
2023/08/07 04:22:18;;;;;;;6.70;2.60;;;;;;;;;;6149810;23;20073;-42
2023/08/07 04:24:46;;;;;;;7.80;2.53;;;;;;;;;;6133647;23;20103;-42
2023/08/07 04:27:13;;;;;;;7.10;2.60;;;;;;;;;;6132708;23;20017;-43
2023/08/07 04:29:42;;;;;;;8.20;2.78;;;;;;;;;;6118932;23;20748;-44
2023/08/07 04:32:10;;;;;;;7.88;2.35;;;;;;;;;;6136775;23;20021;-43
2023/08/07 04:34:37;;;;;;;8.73;2.30;;;;;;;;;;6123980;23;20021;-45
2023/08/07 04:37:06;;;;;;;7.75;2.30;;;;;;;;;;6130758;23;20025;-44
2023/08/07 04:39:33;;;;;;;8.48;1.98;;;;;;;;;;6131920;23;20340;-42
2023/08/07 04:42:01;;;;;;;10.88;2.42;;;;;;;;;;6128590;23;20013;-42
2023/08/07 04:44:29;;;;;;;7.60;2.90;;;;;;;;;;6132097;23;20144;-42
2023/08/07 04:46:58;;;;;;;7.07;2.70;;;;;;;;;;6129739;23;20025;-43
2023/08/07 04:49:26;;;;;;;15.75;2.78;;;;;;;;;;6127446;23;20017;-43
2023/08/07 04:51:53;;;;;;;8.48;2.55;;;;;;;;;;6121896;23;20459;-42
2023/08/07 04:54:21;;;;;;;8.63;2.90;;;;;;;;;;6130100;23;20018;-44
2023/08/07 04:56:50;;;;;;;11.77;3.15;;;;;;;;;;6119850;23;20014;-43
2023/08/07 04:59:18;;;;;;;12.20;3.20;;;;;;;;;;6126631;23;20014;-43
2023/08/07 05:01:48;;;;;;;10.27;3.10;;;;;;;;;;6129432;23;20045;-44
2023/08/07 05:04:17;;;;;;;8.00;2.55;;;;;;;;;;6118878;23;20024;-42
2023/08/07 05:06:45;;;;;;;7.22;2.30;;;;;;;;;;6127633;23;20033;-44
2023/08/07 05:09:13;;;;;;;8.45;2.50;;;;;;;;;;6120269;23;20236;-44
2023/08/07 05:11:40;;;;;;;6.63;2.30;;;;;;;;;;6122645;23;20017;-44
2023/08/07 05:14:10;;;;;;;8.63;2.80;;;;;;;;;;6131143;23;20021;-43
2023/08/07 05:16:38;;;;;;;8.00;3.20;;;;;;;;;;6125204;23;20072;-43
2023/08/07 05:19:06;;;;;;;8.25;3.20;;;;;;;;;;6120744;23;20025;-43
2023/08/07 05:21:35;;;;;;;9.10;3.30;;;;;;;;;;6131082;23;20017;-42
2023/08/07 05:24:03;;;;;;;9.33;3.30;;;;;;;;;;6122315;23;20017;-44
2023/08/07 05:26:31;;;;;;;10.95;3.55;;;;;;;;;;6146810;23;20025;-46
2023/08/07 05:28:59;;;;;;;12.93;3.83;;;;;;;;;;6130366;23;20068;-42
2023/08/07 05:31:26;;;;;;;7.55;3.30;;;;;;;;;;6119201;23;20045;-44
2023/08/07 05:33:56;;;;;;;9.02;3.30;;;;;;;;;;6130188;23;20108;-42
2023/08/07 05:36:23;;;;;;;8.00;2.97;;;;;;;;;;6118623;23;20041;-45
2023/08/07 05:38:52;;;;;;;7.72;3.20;;;;;;;;;;6124490;23;20072;-44
2023/08/07 05:41:20;;;;;;;9.10;3.53;;;;;;;;;;6129475;23;20021;-42
2023/08/07 05:43:48;;;;;;;9.80;3.15;;;;;;;;;;6120436;23;20045;-43
2023/08/07 05:46:15;;;;;;;9.77;3.60;;;;;;;;;;6121946;23;20013;-42
2023/08/07 05:48:43;;;;;;;8.90;3.67;;;;;;;;;;6122333;23;20416;-43
2023/08/07 05:51:10;;;;;;;10.00;3.33;;;;;;;;;;6131188;23;20018;-44
2023/08/07 05:53:41;;;;;;;11.93;3.85;;;;;;;;;;6127815;23;20018;-44
2023/08/07 05:56:09;;;;;;;9.40;3.40;;;;;;;;;;6120969;23;20018;-43
2023/08/07 05:58:37;;;;;;;13.05;3.60;;;;;;;;;;6129486;23;20014;-42
2023/08/07 06:01:05;;;;;;;9.03;3.33;;;;;;;;;;6122319;23;20018;-44
2023/08/07 06:03:33;;;;;;;11.52;3.38;;;;;;;;;;6131057;23;20017;-42
2023/08/07 06:06:00;;;;;;;11.32;3.30;;;;;;;;;;6121874;23;20451;-42
2023/08/07 06:08:28;;;;;;;8.52;3.38;;;;;;;;;;6126991;23;20384;-42
2023/08/07 06:10:56;;;;;;;7.82;3.08;;;;;;;;;;6128498;23;20017;-42
2023/08/07 06:13:26;;;;;;;7.30;3.10;;;;;;;;;;6124935;23;20013;-42
2023/08/07 06:16:03;;;;;;;10.98;3.10;;;;;;;;;;6122127;23;20048;-45
2023/08/07 06:18:31;;;;;;;8.02;3.25;;;;;;;;;;6129419;23;20378;-42
2023/08/07 06:20:59;;;;;;;8.63;3.10;;;;;;;;;;6123998;23;20014;-43
2023/08/07 06:23:27;;;;;;;10.63;3.17;;;;;;;;;;6131984;23;20048;-44
2023/08/07 06:25:55;;;;;;;9.20;3.13;;;;;;;;;;6124706;23;20021;-44
2023/08/07 06:28:27;;;;;;;12.63;3.88;;;;;;;;;;6121478;23;20021;-44
2023/08/07 06:31:01;;;;;;;12.02;3.50;;;;;;;;;;6123736;23;20013;-44
2023/08/07 06:33:28;;;;;;;9.52;2.90;;;;;;;;;;6152321;23;20018;-47
2023/08/07 06:35:56;;;;;;;10.10;3.13;;;;;;;;;;6121367;23;20017;-43
2023/08/07 06:38:26;;;;;;;10.93;2.90;;;;;;;;;;6130625;23;20018;-44
2023/08/07 06:40:54;;;;;;;6.97;3.08;;;;;;;;;;6129459;23;20014;-44
2023/08/07 06:43:21;;;;;;;8.60;2.85;;;;;;;;;;6123153;23;20024;-44
2023/08/07 06:45:51;;;;;;;8.07;3.15;;;;;;;;;;6127738;23;20017;-44
2023/08/07 06:48:19;;;;;;;9.65;3.30;;;;;;;;;;6123624;23;20427;-42
2023/08/07 06:50:47;;;;;;;10.60;3.30;;;;;;;;;;6130324;23;20018;-45
2023/08/07 06:53:15;;;;;;;10.23;3.40;;;;;;;;;;6121420;23;20555;-43
2023/08/07 06:55:43;;;;;;;9.50;2.85;;;;;;;;;;6130114;23;20021;-45
2023/08/07 06:58:12;;;;;;;6.85;2.30;;;;;;;;;;6120169;23;20084;-42
2023/08/07 07:00:39;;;;;;;8.43;2.40;;;;;;;;;;6124598;23;20033;-45
2023/08/07 07:03:09;;;;;;;8.43;2.37;;;;;;;;;;6121058;23;20025;-44
2023/08/07 07:05:38;;;;;;;7.60;1.95;;;;;;;;;;6127097;23;20416;-44
2023/08/07 07:08:08;;;;;;;11.70;2.55;;;;;;;;;;6126889;23;20021;-44
2023/08/07 07:10:35;;;;;;;6.72;1.70;;;;;;;;;;6127846;23;20479;-43
2023/08/07 07:13:03;;;;;;;7.78;1.60;;;;;;;;;;6123158;23;20021;-43
2023/08/07 07:15:31;;;;;;;6.50;1.70;;;;;;;;;;6129123;23;20029;-44
2023/08/07 07:17:59;;;;;;;7.68;2.05;;;;;;;;;;6122292;23;20124;-45
2023/08/07 07:20:28;;;;;;;6.32;2.20;;;;;;;;;;6126777;23;20073;-42
2023/08/07 07:22:56;;;;;;;6.13;1.70;;;;;;;;;;6119795;23;20770;-45
2023/08/07 07:25:24;;;;;;;5.53;1.30;;;;;;;;;;6129498;23;20097;-42
2023/08/07 07:27:52;;;;;;;5.17;1.47;;;;;;;;;;6121802;23;20028;-43
2023/08/07 07:30:20;;;;;;;6.70;1.83;;;;;;;;;;6130014;23;20097;-42
2023/08/07 07:32:47;;;;;;;6.70;1.60;;;;;;;;;;6119942;23;20369;-44
2023/08/07 07:35:15;;;;;;;5.65;1.50;;;;;;;;;;6132385;23;20017;-42
2023/08/07 07:37:44;;;;;;;7.15;1.40;;;;;;;;;;6120347;23;20014;-43
2023/08/07 07:40:12;;;;;;;5.13;1.70;;;;;;;;;;6119896;23;20092;-43
2023/08/07 07:42:40;;;;;;;5.85;1.70;;;;;;;;;;6127827;23;20072;-43
2023/08/07 07:45:08;;;;;;;6.10;1.42;;;;;;;;;;6123697;23;20057;-43
2023/08/07 07:47:36;;;;;;;4.05;1.35;;;;;;;;;;6126814;23;20064;-44
2023/08/07 07:50:08;;;;;;;5.68;1.60;;;;;;;;;;6119714;23;20504;-43
2023/08/07 07:52:36;;;;;;;5.60;1.93;;;;;;;;;;6153218;23;20026;-44
2023/08/07 07:55:05;;;;;;;5.45;1.60;;;;;;;;;;6121507;23;20440;-44
2023/08/07 07:57:33;;;;;;;6.63;1.50;;;;;;;;;;6125817;23;20017;-43
2023/08/07 08:00:04;;;;;;;6.35;1.50;;;;;;;;;;6122101;23;20869;-43
2023/08/07 08:02:31;;;;;;;6.10;1.70;;;;;;;;;;6121096;23;20039;-42
2023/08/07 08:04:59;;;;;;;4.57;1.27;;;;;;;;;;6152210;23;20044;-43
2023/08/07 08:07:27;;;;;;;7.35;1.40;;;;;;;;;;6118587;23;20017;-44
2023/08/07 08:09:55;;;;;;;7.88;1.80;;;;;;;;;;6129623;23;20025;-45
2023/08/07 08:12:24;;;;;;;6.93;1.52;;;;;;;;;;6112416;23;20013;-42
2023/08/07 08:14:51;;;;;;;4.93;1.15;;;;;;;;;;6127032;23;20464;-44
2023/08/07 08:17:39;;;;;;;4.20;1.17;;;;;;;;;;6120633;23;20759;-44
2023/08/07 08:20:08;;;;;;;6.78;1.42;;;;;;;;;;6116926;23;20018;-44
2023/08/07 08:22:35;;;;;;;6.68;1.63;;;;;;;;;;6119012;23;20028;-44
2023/08/07 08:25:04;;;;;;;4.80;1.30;;;;;;;;;;6148614;23;20021;-43
2023/08/07 08:27:33;;;;;;;5.50;1.30;;;;;;;;;;6125983;23;20024;-42
2023/08/07 08:30:01;;;;;;;8.33;1.80;;;;;;;;;;6120928;23;20018;-43
2023/08/07 08:32:31;;;;;;;5.75;1.88;;;;;;;;;;6127979;23;20015;-45
2023/08/07 08:34:59;;;;;;;4.40;1.23;;;;;;;;;;6131655;23;20580;-43
2023/08/07 08:37:29;;;;;;;5.53;1.48;;;;;;;;;;6120494;23;20551;-44
2023/08/07 08:39:57;;;;;;;5.35;1.48;;;;;;;;;;6129270;23;20017;-43
2023/08/07 08:42:25;;;;;;;5.87;1.37;;;;;;;;;;6125057;23;20344;-42
2023/08/07 08:44:55;;;;;;;4.20;1.60;;;;;;;;;;6125803;23;20022;-43
2023/08/07 08:47:23;;;;;;;5.45;1.40;;;;;;;;;;6125737;23;20021;-44
2023/08/07 08:49:52;;;;;;;5.43;1.20;;;;;;;;;;6124316;23;20546;-42
2023/08/07 08:52:20;;;;;;;5.07;1.10;;;;;;;;;;6122415;23;20021;-46
2023/08/07 08:54:48;;;;;;;4.90;1.20;;;;;;;;;;6128134;23;20028;-44
2023/08/07 08:57:15;;;;;;;5.35;0.90;;;;;;;;;;6143889;23;20070;-43
2023/08/07 08:59:43;;;;;;;4.45;1.30;;;;;;;;;;6123755;23;20022;-44
2023/08/07 09:02:14;;;;;;;6.10;1.25;;;;;;;;;;6126329;23;20041;-43
2023/08/07 09:04:42;;;;;;;4.72;1.00;;;;;;;;;;6117698;23;20400;-46
2023/08/07 09:07:10;;;;;;;3.90;0.90;;;;;;;;;;6130573;23;20028;-46
2023/08/07 09:09:38;;;;;;;6.40;0.90;;;;;;;;;;6119831;23;20022;-46
2023/08/07 09:12:09;;;;;;;5.00;1.20;;;;;;;;;;6124960;23;20013;-45
2023/08/07 09:14:39;;;;;;;5.05;1.02;;;;;;;;;;6125516;23;20043;-44
2023/08/07 09:17:06;;;;;;;6.43;1.40;;;;;;;;;;6128468;23;20101;-45
2023/08/07 09:19:36;;;;;;;4.80;1.40;;;;;;;;;;6120383;23;20021;-45
2023/08/07 09:22:03;;;;;;;10.20;1.55;;;;;;;;;;6127502;23;20021;-43
2023/08/07 09:24:32;;;;;;;6.45;1.10;;;;;;;;;;6140578;23;20024;-46
2023/08/07 09:26:59;;;;;;;5.65;1.20;;;;;;;;;;6123411;23;20024;-44
2023/08/07 09:29:27;;;;;;;6.18;1.38;;;;;;;;;;6122984;23;20021;-42
2023/08/07 09:31:55;;;;;;;4.60;1.13;;;;;;;;;;6131217;23;20013;-43
2023/08/07 09:34:23;;;;;;;6.85;1.40;;;;;;;;;;6121882;23;20017;-42
2023/08/07 09:36:52;;;;;;;5.05;1.20;;;;;;;;;;6127143;23;20032;-43
2023/08/07 09:39:25;;;;;;;7.88;1.38;;;;;;;;;;6129821;23;20539;-43
2023/08/07 09:41:55;;;;;;;5.10;1.30;;;;;;;;;;6121867;23;20687;-45
2023/08/07 09:44:23;;;;;;;4.63;1.10;;;;;;;;;;6130259;23;20018;-45
2023/08/07 09:46:51;;;;;;;5.45;1.00;;;;;;;;;;6122617;23;20021;-42
2023/08/07 09:49:19;;;;;;;5.82;1.10;;;;;;;;;;6154917;23;20024;-44
2023/08/07 09:51:47;;;;;;;7.63;1.35;;;;;;;;;;6121143;23;20040;-43
2023/08/07 09:54:16;;;;;;;3.65;1.20;;;;;;;;;;6129709;23;20021;-42
2023/08/07 09:56:46;;;;;;;4.73;1.20;;;;;;;;;;6117284;23;20017;-43
2023/08/07 09:59:17;;;;;;;5.85;1.10;;;;;;;;;;6130114;23;20448;-44
2023/08/07 10:01:45;;;;;;;7.30;2.10;;;;;;;;;;6131455;23;20014;-42
2023/08/07 10:04:15;;;;;;;5.90;0.90;;;;;;;;;;6121823;23;20039;-42
2023/08/07 10:06:43;;;;;;;4.20;1.10;;;;;;;;;;6128142;23;20013;-44
2023/08/07 10:09:11;;;;;;;7.53;1.87;;;;;;;;;;6145752;23;20442;-43
2023/08/07 10:11:40;;;;;;;8.25;1.40;;;;;;;;;;6128612;23;20100;-43
2023/08/07 10:14:11;;;;;;;7.60;1.35;;;;;;;;;;6134773;23;20326;-44
2023/08/07 10:16:41;;;;;;;4.70;0.80;;;;;;;;;;6126917;23;20025;-44
2023/08/07 10:19:09;;;;;;;5.90;1.02;;;;;;;;;;6146039;23;20128;-43
2023/08/07 10:21:37;;;;;;;3.93;0.97;;;;;;;;;;6130483;23;20536;-42
2023/08/07 10:24:05;;;;;;;4.25;0.77;;;;;;;;;;6115334;23;20316;-42
2023/08/07 10:26:33;;;;;;;4.05;0.80;;;;;;;;;;6125214;23;20093;-43
2023/08/07 10:29:03;;;;;;;3.60;1.00;;;;;;;;;;6131583;23;20022;-43
2023/08/07 10:31:32;;;;;;;7.32;1.33;;;;;;;;;;6121465;23;20017;-42
2023/08/07 10:34:00;;;;;;;4.80;0.90;;;;;;;;;;6130602;23;20513;-43
2023/08/07 10:36:33;;;;;;;4.00;1.20;;;;;;;;;;6119072;23;20021;-43
2023/08/07 10:39:07;;;;;;;9.55;1.40;;;;;;;;;;6148826;23;20013;-46
2023/08/07 10:41:39;;;;;;;4.95;1.08;;;;;;;;;;6123877;23;20021;-44
2023/08/07 10:44:17;;;;;;;7.97;1.20;;;;;;;;;;6128871;23;20014;-42
2023/08/07 10:46:48;;;;;;;5.97;1.13;;;;;;;;;;6119311;23;20293;-43
2023/08/07 10:49:31;;;;;;;4.22;1.38;;;;;;;;;;6130981;23;20044;-42
2023/08/07 10:51:58;;;;;;;5.70;1.48;;;;;;;;;;6120762;23;20345;-45
2023/08/07 10:54:30;;;;;;;5.40;0.95;;;;;;;;;;6128771;23;20527;-44
2023/08/07 10:57:00;;;;;;;5.20;1.20;;;;;;;;;;6131725;23;20021;-42
2023/08/07 10:59:30;;;;;;;5.33;1.20;;;;;;;;;;6119494;23;20026;-44
2023/08/07 11:01:57;;;;;;;7.18;1.50;;;;;;;;;;6131135;23;20037;-43
2023/08/07 11:04:26;;;;;;;5.55;1.50;;;;;;;;;;6121850;23;20460;-43
2023/08/07 11:06:54;;;;;;;5.82;1.23;;;;;;;;;;6130156;23;20019;-44
2023/08/07 11:09:22;;;;;;;4.35;1.27;;;;;;;;;;6121753;23;20017;-43
2023/08/07 11:11:49;;;;;;;6.17;1.33;;;;;;;;;;6123375;23;20018;-52
2023/08/07 11:14:18;;;;;;;3.90;0.82;;;;;;;;;;6119246;23;20092;-42
2023/08/07 11:16:47;;;;;;;5.13;1.02;;;;;;;;;;6128193;23;20846;-43
2023/08/07 11:19:15;;;;;;;5.25;0.93;;;;;;;;;;6121024;23;20355;-42
2023/08/07 11:21:44;;;;;;;4.90;1.00;;;;;;;;;;6130667;23;20052;-47
2023/08/07 11:24:13;;;;;;;5.10;1.17;;;;;;;;;;6121295;23;20453;-44
2023/08/07 11:26:40;;;;;;;4.22;0.90;;;;;;;;;;6124603;23;20013;-43
2023/08/07 11:29:09;;;;;;;5.15;1.08;;;;;;;;;;6127382;23;20017;-42
2023/08/07 11:31:36;;;;;;;5.13;0.88;;;;;;;;;;6139314;23;20054;-45
2023/08/07 11:34:07;;;;;;;6.15;0.85;;;;;;;;;;6129520;23;20071;-44
2023/08/07 11:36:42;;;;;;;5.13;0.97;;;;;;;;;;6126601;23;20020;-44
2023/08/07 11:39:09;;;;;;;5.47;1.10;;;;;;;;;;6123846;23;20021;-43
2023/08/07 11:41:40;;;;;;;5.45;1.17;;;;;;;;;;6123852;23;20021;-43
2023/08/07 11:44:08;;;;;;;3.90;0.90;;;;;;;;;;6154480;23;20017;-45
2023/08/07 11:46:36;;;;;;;4.43;0.90;;;;;;;;;;6117954;23;20028;-45
2023/08/07 11:49:06;;;;;;;3.97;1.10;;;;;;;;;;6128694;23;20415;-45
2023/08/07 11:51:34;;;;;;;4.60;1.42;;;;;;;;;;6120224;23;20557;-45
2023/08/07 11:54:01;;;;;;;5.07;1.30;;;;;;;;;;6130954;23;20017;-43
2023/08/07 11:56:30;;;;;;;4.15;1.08;;;;;;;;;;6118709;23;20025;-49
2023/08/07 11:58:58;;;;;;;5.05;1.08;;;;;;;;;;6130635;23;20032;-41
2023/08/07 12:01:27;;;;;;;5.37;1.07;;;;;;;;;;6121765;23;20024;-43
2023/08/07 12:03:56;;;;;;;4.47;1.20;;;;;;;;;;6131089;23;20022;-42
2023/08/07 12:06:26;;;;;;;5.80;1.30;;;;;;;;;;6120110;23;20116;-42
2023/08/07 12:08:55;;;;;;;5.22;1.23;;;;;;;;;;6143951;23;20033;-52
2023/08/07 12:11:22;;;;;;;5.25;1.20;;;;;;;;;;6134553;23;20017;-42
2023/08/07 12:13:51;;;;;;;4.90;0.90;;;;;;;;;;6123482;23;20455;-45
2023/08/07 12:16:18;;;;;;;5.07;1.30;;;;;;;;;;6121322;23;20018;-42
2023/08/07 12:18:47;;;;;;;4.72;1.10;;;;;;;;;;6129031;23;20025;-41
2023/08/07 12:21:15;;;;;;;5.97;1.10;;;;;;;;;;6122090;23;20029;-45
2023/08/07 12:23:47;;;;;;;3.78;1.05;;;;;;;;;;6127566;23;20045;-42
2023/08/07 12:26:16;;;;;;;3.80;0.80;;;;;;;;;;6126026;23;20451;-42
2023/08/07 12:28:43;;;;;;;3.67;0.80;;;;;;;;;;6130149;23;20021;-42
2023/08/07 12:31:11;;;;;;;4.47;1.20;;;;;;;;;;6121508;23;20455;-41
2023/08/07 12:33:39;;;;;;;4.38;0.88;;;;;;;;;;6128430;23;20033;-44
2023/08/07 12:36:08;;;;;;;5.53;1.20;;;;;;;;;;6118260;23;20072;-42
2023/08/07 12:38:48;;;;;;;4.60;1.10;;;;;;;;;;6122289;23;20087;-42
2023/08/07 12:41:16;;;;;;;6.00;1.40;;;;;;;;;;6129600;23;20025;-41
2023/08/07 12:43:46;;;;;;;5.47;1.67;;;;;;;;;;6120477;23;20735;-42
2023/08/07 12:46:14;;;;;;;5.10;1.20;;;;;;;;;;6128871;23;20366;-41
2023/08/07 12:48:45;;;;;;;6.85;1.50;;;;;;;;;;6122919;23;20438;-43
2023/08/07 12:51:14;;;;;;;4.93;1.30;;;;;;;;;;6126821;23;20018;-43
2023/08/07 12:53:44;;;;;;;5.38;1.50;;;;;;;;;;6130228;23;20104;-41
2023/08/07 12:56:13;;;;;;;4.38;1.27;;;;;;;;;;6118467;23;20097;-44
2023/08/07 12:58:41;;;;;;;5.15;1.00;;;;;;;;;;6128742;23;20021;-47
2023/08/07 13:01:09;;;;;;;6.43;1.65;;;;;;;;;;6119803;23;20402;-45
2023/08/07 13:03:37;;;;;;;6.80;2.00;;;;;;;;;;6127974;23;20071;-43
2023/08/07 13:06:07;;;;;;;7.85;1.70;;;;;;;;;;6119394;23;20024;-42
2023/08/07 13:08:35;;;;;;;4.57;1.40;;;;;;;;;;6125817;23;20009;-44
2023/08/07 13:11:02;;;;;;;6.53;1.60;;;;;;;;;;6123974;23;20028;-42
2023/08/07 13:13:31;;;;;;;4.22;1.35;;;;;;;;;;6123285;23;20018;-42
2023/08/07 13:15:59;;;;;;;7.90;1.60;;;;;;;;;;6120639;23;20024;-42
2023/08/07 13:18:27;;;;;;;5.28;1.75;;;;;;;;;;6129512;23;20348;-42
2023/08/07 13:20:54;;;;;;;5.20;1.77;;;;;;;;;;6143408;23;20909;-43
2023/08/07 13:23:22;;;;;;;5.65;1.75;;;;;;;;;;6130334;23;20018;-44
2023/08/07 13:25:50;;;;;;;5.45;2.00;;;;;;;;;;6120068;23;20021;-43
2023/08/07 13:28:18;;;;;;;6.30;2.10;;;;;;;;;;6122146;23;20028;-42
2023/08/07 13:30:47;;;;;;;4.35;1.67;;;;;;;;;;6127235;23;20358;-42
2023/08/07 13:33:14;;;;;;;6.25;1.70;;;;;;;;;;6120944;23;20400;-42
2023/08/07 13:35:45;;;;;;;5.75;1.58;;;;;;;;;;6124808;23;20024;-43
2023/08/07 13:38:14;;;;;;;8.30;1.38;;;;;;;;;;6132326;23;20029;-44
2023/08/07 13:40:43;;;;;;;6.33;1.67;;;;;;;;;;6120015;23;20021;-42
2023/08/07 13:43:12;;;;;;;6.20;1.63;;;;;;;;;;6123073;23;20023;-42
2023/08/07 13:45:40;;;;;;;7.00;1.17;;;;;;;;;;6124206;23;20013;-44
2023/08/07 13:48:10;;;;;;;6.80;0.80;;;;;;;;;;6120060;23;20029;-42
2023/08/07 13:50:38;;;;;;;5.93;1.58;;;;;;;;;;6127854;23;20025;-45
2023/08/07 13:53:06;;;;;;;4.60;1.10;;;;;;;;;;6119646;23;20013;-43
2023/08/07 13:55:41;;;;;;;6.00;1.58;;;;;;;;;;6129830;23;20470;-44
2023/08/07 13:58:09;;;;;;;5.43;1.48;;;;;;;;;;6120011;23;20041;-49
2023/08/07 14:00:38;;;;;;;7.72;1.75;;;;;;;;;;6120325;23;20032;-47
2023/08/07 14:03:06;;;;;;;5.55;1.60;;;;;;;;;;6119526;23;20009;-43
2023/08/07 14:05:37;;;;;;;6.63;1.53;;;;;;;;;;6128003;23;20029;-44
2023/08/07 14:08:05;;;;;;;4.68;1.30;;;;;;;;;;6125344;23;20092;-45
2023/08/07 14:10:33;;;;;;;5.68;1.58;;;;;;;;;;6124457;23;20014;-42
2023/08/07 14:13:01;;;;;;;6.57;1.10;;;;;;;;;;6126867;23;20068;-44
2023/08/07 14:15:28;;;;;;;6.22;1.20;;;;;;;;;;6130611;23;20013;-45
2023/08/07 14:17:57;;;;;;;6.13;1.47;;;;;;;;;;6118706;23;20096;-43
2023/08/07 14:20:26;;;;;;;5.40;1.52;;;;;;;;;;6151340;23;20487;-43
2023/08/07 14:22:55;;;;;;;6.20;1.45;;;;;;;;;;6124006;23;20035;-43
2023/08/07 14:25:32;;;;;;;4.05;0.90;;;;;;;;;;6126989;23;20013;-45
2023/08/07 14:27:59;;;;;;;5.72;1.20;;;;;;;;;;6122067;23;20352;-42
2023/08/07 14:30:27;;;;;;;4.67;1.57;;;;;;;;;;6152189;23;20017;-42
2023/08/07 14:32:55;;;;;;;5.45;1.17;;;;;;;;;;6122659;23;20320;-43
2023/08/07 14:35:22;;;;;;;5.22;0.90;;;;;;;;;;6129976;23;20013;-42
2023/08/07 14:37:50;;;;;;;4.50;1.23;;;;;;;;;;6126372;23;20024;-45
2023/08/07 14:40:19;;;;;;;3.85;1.33;;;;;;;;;;6122099;23;20330;-44
2023/08/07 14:42:47;;;;;;;5.07;1.07;;;;;;;;;;6128264;23;20021;-44
2023/08/07 14:45:15;;;;;;;6.28;1.13;;;;;;;;;;6120436;23;20080;-42
2023/08/07 14:47:43;;;;;;;6.28;1.58;;;;;;;;;;6126188;23;20022;-42
2023/08/07 14:50:10;;;;;;;3.58;0.95;;;;;;;;;;6122165;23;20052;-42
2023/08/07 14:52:38;;;;;;;4.93;1.23;;;;;;;;;;6153081;23;20033;-45